Time;durP1;ratioP1;P1;durP2;ratioP2;P2;SDS_P1;SDS_P2;PMS_P1;PMS_P2;Temp;Humidity;BMP_temperature;BMP_pressure;BME280_temperature;BME280_humidity;BME280_pressure;Samples;Min_cycle;Max_cycle;Signal;HPM_P1;HPM_P2
2022/06/24 00:00:33;;;;;;;;;;;;;;;;;;1043083;28;3101;-45
2022/06/24 00:01:12;;;;;;;;;;;;;;;;;;1044713;28;3884;-47
2022/06/24 00:01:42;;;;;;;;;;;;;;;;;;1041927;28;3002;-47
2022/06/24 00:02:12;;;;;;;;;;;;;;;;;;1040063;28;4209;-50
2022/06/24 00:02:49;;;;;;;;;;;;;;;;;;1036661;28;3798;-46
2022/06/24 00:03:19;;;;;;;;;;;;;;;;;;1036565;28;3888;-48
2022/06/24 00:03:56;;;;;;;;;;;;;;;;;;1039703;28;1930;-47
2022/06/24 00:04:28;;;;;;;;;;;;;;;;;;1041508;28;3581;-48
2022/06/24 00:05:00;;;;;;;;;;;;;;;;;;1038939;28;3839;-46
2022/06/24 00:05:31;;;;;;;;;;;;;;;;;;1037098;28;3016;-48
2022/06/24 00:06:01;;;;;;;;;;;;;;;;;;1036806;28;4283;-49
2022/06/24 00:06:43;;;;;;;;;;;;;;;;;;1036273;28;2967;-45
2022/06/24 00:07:14;;;;;;;;;;;;;;;;;;1038813;28;4338;-48
2022/06/24 00:07:45;;;;;;;;;;;;;;;;;;1038755;28;3600;-48
2022/06/24 00:08:16;;;;;;;;;;;;;;;;;;1040515;28;3803;-50
2022/06/24 00:08:51;;;;;;;;;;;;;;;;;;1041906;28;2850;-49
2022/06/24 00:09:22;;;;;;;;;;;;;;;;;;1034391;28;3852;-47
2022/06/24 00:09:52;;;;;;;;;;;;;;;;;;1036703;28;3707;-47
2022/06/24 00:10:24;;;;;;;;;;;;;;;;;;1035830;28;3913;-48
2022/06/24 00:10:55;;;;;;;;;;;;;;;;;;1036335;28;2281;-47
2022/06/24 00:11:26;;;;;;;;;;;;;;;;;;1036633;28;3883;-49
2022/06/24 00:12:01;;;;;;;;;;;;;;;;;;1034944;28;3363;-49
2022/06/24 00:12:32;;;;;;;;;;;;;;;;;;1035768;28;3742;-48
2022/06/24 00:13:03;;;;;;;;;;;;;;;;;;1037473;28;4445;-47
2022/06/24 00:13:43;;;;;;;;;;;;;;;;;;1041214;28;1455;-48
2022/06/24 00:14:17;;;;;;;;;;;;;;;;;;1040996;28;4213;-47
2022/06/24 00:15:00;;;;;;;;;;;;;;;;;;1036776;28;3204;-46
2022/06/24 00:15:31;;;;;;;;;;;;;;;;;;1035937;28;3831;-48
2022/06/24 00:16:02;;;;;;;;;;;;;;;;;;1037358;28;3868;-50
2022/06/24 00:16:46;;;;;;;;;;;;;;;;;;1038523;28;3299;-46
2022/06/24 00:17:18;;;;;;;;;;;;;;;;;;1040837;28;3810;-49
2022/06/24 00:17:48;;;;;;;;;;;;;;;;;;1037425;28;2615;-49
2022/06/24 00:18:19;;;;;;;;;;;;;;;;;;1037287;28;3782;-48
2022/06/24 00:19:07;;;;;;;;;;;;;;;;;;1037094;28;1581;-47
2022/06/24 00:19:53;;;;;;;;;;;;;;;;;;1038196;28;3702;-47
2022/06/24 00:20:23;;;;;;;;;;;;;;;;;;1040655;28;3950;-47
2022/06/24 00:20:53;;;;;;;;;;;;;;;;;;1040387;28;3733;-46
2022/06/24 00:21:23;;;;;;;;;;;;;;;;;;1040371;28;3756;-46
2022/06/24 00:22:12;;;;;;;;;;;;;;;;;;1039480;28;3885;-46
2022/06/24 00:22:46;;;;;;;;;;;;;;;;;;1038840;28;3473;-50
2022/06/24 00:23:20;;;;;;;;;;;;;;;;;;1039511;28;3787;-48
2022/06/24 00:23:50;;;;;;;;;;;;;;;;;;1041561;28;1918;-47
2022/06/24 00:24:21;;;;;;;;;;;;;;;;;;1041473;28;3785;-50
2022/06/24 00:25:10;;;;;;;;;;;;;;;;;;1038647;28;3717;-48
2022/06/24 00:25:42;;;;;;;;;;;;;;;;;;1041951;28;3754;-47
2022/06/24 00:26:13;;;;;;;;;;;;;;;;;;1041522;28;3795;-47
2022/06/24 00:26:43;;;;;;;;;;;;;;;;;;1040987;28;2936;-47
2022/06/24 00:27:19;;;;;;;;;;;;;;;;;;1040782;28;3899;-50
2022/06/24 00:27:58;;;;;;;;;;;;;;;;;;1041592;28;1905;-48
2022/06/24 00:28:28;;;;;;;;;;;;;;;;;;1040914;28;3760;-47
2022/06/24 00:29:01;;;;;;;;;;;;;;;;;;1037064;28;4258;-48
2022/06/24 00:29:32;;;;;;;;;;;;;;;;;;1035806;28;2432;-49
2022/06/24 00:30:13;;;;;;;;;;;;;;;;;;1035033;28;3813;-48
2022/06/24 00:30:44;;;;;;;;;;;;;;;;;;1039864;28;1680;-50
2022/06/24 00:31:14;;;;;;;;;;;;;;;;;;1041271;28;3863;-45
2022/06/24 00:32:03;;;;;;;;;;;;;;;;;;1041092;28;2941;-48
2022/06/24 00:32:33;;;;;;;;;;;;;;;;;;1037957;28;3874;-47
2022/06/24 00:33:11;;;;;;;;;;;;;;;;;;1040410;28;3797;-48
2022/06/24 00:33:46;;;;;;;;;;;;;;;;;;1036364;28;2822;-45
2022/06/24 00:34:23;;;;;;;;;;;;;;;;;;1036739;28;3890;-48
2022/06/24 00:35:00;;;;;;;;;;;;;;;;;;1035917;28;3715;-48
2022/06/24 00:35:35;;;;;;;;;;;;;;;;;;1038407;28;3940;-47
2022/06/24 00:36:06;;;;;;;;;;;;;;;;;;1041423;28;4256;-49
2022/06/24 00:36:36;;;;;;;;;;;;;;;;;;1041932;28;1841;-46
2022/06/24 00:37:23;;;;;;;;;;;;;;;;;;1040528;28;3807;-47
2022/06/24 00:37:56;;;;;;;;;;;;;;;;;;1037083;28;1835;-51
2022/06/24 00:38:34;;;;;;;;;;;;;;;;;;1035978;28;4030;-49
2022/06/24 00:39:04;;;;;;;;;;;;;;;;;;1036596;28;3850;-49
2022/06/24 00:39:35;;;;;;;;;;;;;;;;;;1038461;28;2803;-50
2022/06/24 00:40:11;;;;;;;;;;;;;;;;;;1038554;28;3811;-45
2022/06/24 00:40:42;;;;;;;;;;;;;;;;;;1041401;28;3130;-45
2022/06/24 00:41:13;;;;;;;;;;;;;;;;;;1041675;28;4279;-47
2022/06/24 00:41:48;;;;;;;;;;;;;;;;;;1040527;28;3636;-50
2022/06/24 00:42:19;;;;;;;;;;;;;;;;;;1040729;28;3787;-47
2022/06/24 00:42:50;;;;;;;;;;;;;;;;;;1041204;28;3578;-45
2022/06/24 00:43:27;;;;;;;;;;;;;;;;;;1040289;28;3806;-48
2022/06/24 00:44:00;;;;;;;;;;;;;;;;;;1041098;28;3799;-45
2022/06/24 00:44:38;;;;;;;;;;;;;;;;;;1041836;28;1401;-46
2022/06/24 00:45:29;;;;;;;;;;;;;;;;;;1039734;28;4340;-47
2022/06/24 00:46:22;;;;;;;;;;;;;;;;;;1040834;28;3899;-46
2022/06/24 00:46:57;;;;;;;;;;;;;;;;;;1030433;28;2221;-47
2022/06/24 00:47:27;;;;;;;;;;;;;;;;;;1039419;28;3661;-47
2022/06/24 00:47:58;;;;;;;;;;;;;;;;;;1041142;28;3784;-49
2022/06/24 00:48:29;;;;;;;;;;;;;;;;;;1041868;28;1686;-49
2022/06/24 00:48:59;;;;;;;;;;;;;;;;;;1039991;28;3827;-48
2022/06/24 00:49:29;;;;;;;;;;;;;;;;;;1041262;28;3198;-46
2022/06/24 00:50:02;;;;;;;;;;;;;;;;;;1038857;28;3899;-49
2022/06/24 00:50:32;;;;;;;;;;;;;;;;;;1038727;28;4343;-46
2022/06/24 00:51:03;;;;;;;;;;;;;;;;;;1038938;28;3871;-49
2022/06/24 00:51:36;;;;;;;;;;;;;;;;;;1042081;28;1763;-47
2022/06/24 00:52:07;;;;;;;;;;;;;;;;;;1037506;28;3930;-46
2022/06/24 00:52:38;;;;;;;;;;;;;;;;;;1041906;28;1709;-49
2022/06/24 00:53:08;;;;;;;;;;;;;;;;;;1040408;28;3911;-50
2022/06/24 00:53:39;;;;;;;;;;;;;;;;;;1040169;28;2510;-47
2022/06/24 00:54:11;;;;;;;;;;;;;;;;;;1040954;28;4243;-46
2022/06/24 00:54:43;;;;;;;;;;;;;;;;;;1037319;28;1579;-47
2022/06/24 00:55:20;;;;;;;;;;;;;;;;;;1034847;28;3801;-47
2022/06/24 00:55:51;;;;;;;;;;;;;;;;;;1036798;28;3521;-46
2022/06/24 00:56:24;;;;;;;;;;;;;;;;;;1037103;28;4270;-50
2022/06/24 00:56:55;;;;;;;;;;;;;;;;;;1041512;28;1838;-47
2022/06/24 00:57:25;;;;;;;;;;;;;;;;;;1035709;28;4223;-47
2022/06/24 00:57:57;;;;;;;;;;;;;;;;;;1037477;28;2812;-48
2022/06/24 00:58:27;;;;;;;;;;;;;;;;;;1036061;28;3673;-48
2022/06/24 00:59:01;;;;;;;;;;;;;;;;;;1036590;28;3952;-48
2022/06/24 00:59:35;;;;;;;;;;;;;;;;;;1041648;28;2164;-47
2022/06/24 01:00:05;;;;;;;;;;;;;;;;;;1043459;28;3885;-47
2022/06/24 01:00:35;;;;;;;;;;;;;;;;;;1043901;28;3078;-46
2022/06/24 01:01:06;;;;;;;;;;;;;;;;;;1042715;28;3885;-47
2022/06/24 01:01:38;;;;;;;;;;;;;;;;;;1045588;28;1790;-50
2022/06/24 01:02:08;;;;;;;;;;;;;;;;;;1038348;28;6250;-46
2022/06/24 01:02:40;;;;;;;;;;;;;;;;;;1040807;28;3046;-50
2022/06/24 01:03:14;;;;;;;;;;;;;;;;;;1035868;28;3917;-46
2022/06/24 01:03:50;;;;;;;;;;;;;;;;;;1034033;28;3805;-47
2022/06/24 01:04:30;;;;;;;;;;;;;;;;;;1035426;28;3890;-48
2022/06/24 01:05:08;;;;;;;;;;;;;;;;;;1039738;28;3881;-50
2022/06/24 01:05:38;;;;;;;;;;;;;;;;;;1039168;28;3664;-49
2022/06/24 01:06:09;;;;;;;;;;;;;;;;;;1037053;28;3959;-46
2022/06/24 01:06:46;;;;;;;;;;;;;;;;;;1036860;28;1994;-47
2022/06/24 01:07:17;;;;;;;;;;;;;;;;;;1035604;28;3985;-49
2022/06/24 01:07:47;;;;;;;;;;;;;;;;;;1036945;28;1654;-48
2022/06/24 01:08:17;;;;;;;;;;;;;;;;;;1036630;28;3851;-47
2022/06/24 01:08:47;;;;;;;;;;;;;;;;;;1036606;28;3304;-49
2022/06/24 01:09:19;;;;;;;;;;;;;;;;;;1035771;28;4266;-48
2022/06/24 01:09:50;;;;;;;;;;;;;;;;;;1036131;28;3090;-50
2022/06/24 01:10:20;;;;;;;;;;;;;;;;;;1034791;28;3959;-47
2022/06/24 01:10:50;;;;;;;;;;;;;;;;;;1035058;28;4476;-46
2022/06/24 01:11:24;;;;;;;;;;;;;;;;;;1035477;28;3774;-47
2022/06/24 01:11:54;;;;;;;;;;;;;;;;;;1031632;28;3737;-49
2022/06/24 01:12:24;;;;;;;;;;;;;;;;;;1036370;28;5191;-48
2022/06/24 01:12:55;;;;;;;;;;;;;;;;;;1030886;28;3720;-48
2022/06/24 01:13:25;;;;;;;;;;;;;;;;;;1032695;28;3784;-49
2022/06/24 01:13:56;;;;;;;;;;;;;;;;;;1033737;28;1790;-47
2022/06/24 01:14:26;;;;;;;;;;;;;;;;;;1032249;28;3823;-47
2022/06/24 01:14:56;;;;;;;;;;;;;;;;;;1036202;28;3160;-47
2022/06/24 01:15:27;;;;;;;;;;;;;;;;;;1035529;28;3821;-47
2022/06/24 01:15:57;;;;;;;;;;;;;;;;;;1036295;28;3854;-49
2022/06/24 01:16:27;;;;;;;;;;;;;;;;;;1036284;28;3107;-50
2022/06/24 01:16:58;;;;;;;;;;;;;;;;;;1036552;28;3893;-50
2022/06/24 01:17:28;;;;;;;;;;;;;;;;;;1036631;28;2904;-46
2022/06/24 01:17:59;;;;;;;;;;;;;;;;;;1034521;28;4726;-48
2022/06/24 01:18:29;;;;;;;;;;;;;;;;;;1036975;28;4088;-46
2022/06/24 01:19:00;;;;;;;;;;;;;;;;;;1036437;28;3876;-49
2022/06/24 01:19:31;;;;;;;;;;;;;;;;;;1036424;28;4076;-46
2022/06/24 01:20:01;;;;;;;;;;;;;;;;;;1036373;28;3837;-48
2022/06/24 01:20:31;;;;;;;;;;;;;;;;;;1032363;28;3256;-46
2022/06/24 01:21:02;;;;;;;;;;;;;;;;;;1030432;28;3893;-49
2022/06/24 01:21:36;;;;;;;;;;;;;;;;;;1035950;28;4061;-49
2022/06/24 01:22:06;;;;;;;;;;;;;;;;;;1035153;28;4000;-47
2022/06/24 01:22:37;;;;;;;;;;;;;;;;;;1037260;28;1652;-49
2022/06/24 01:23:07;;;;;;;;;;;;;;;;;;1036973;28;4331;-48
2022/06/24 01:23:37;;;;;;;;;;;;;;;;;;1035427;28;3832;-48
2022/06/24 01:24:09;;;;;;;;;;;;;;;;;;1037156;28;4066;-49
2022/06/24 01:24:39;;;;;;;;;;;;;;;;;;1036799;28;1958;-45
2022/06/24 01:25:10;;;;;;;;;;;;;;;;;;1035124;28;4071;-48
2022/06/24 01:25:41;;;;;;;;;;;;;;;;;;1036481;28;2636;-47
2022/06/24 01:26:11;;;;;;;;;;;;;;;;;;1044475;28;4283;-46
2022/06/24 01:26:42;;;;;;;;;;;;;;;;;;1043797;28;3170;-48
2022/06/24 01:27:12;;;;;;;;;;;;;;;;;;1044634;28;4118;-47
2022/06/24 01:27:43;;;;;;;;;;;;;;;;;;1042418;28;3761;-46
2022/06/24 01:28:13;;;;;;;;;;;;;;;;;;1040991;28;3976;-48
2022/06/24 01:28:43;;;;;;;;;;;;;;;;;;1041103;28;1670;-46
2022/06/24 01:29:17;;;;;;;;;;;;;;;;;;1040767;28;4220;-47
2022/06/24 01:29:47;;;;;;;;;;;;;;;;;;1040351;28;2074;-48
2022/06/24 01:30:18;;;;;;;;;;;;;;;;;;1035860;28;3856;-46
2022/06/24 01:30:48;;;;;;;;;;;;;;;;;;1037296;28;2432;-51
2022/06/24 01:31:18;;;;;;;;;;;;;;;;;;1035943;28;3939;-47
2022/06/24 01:31:49;;;;;;;;;;;;;;;;;;1036126;28;3938;-47
2022/06/24 01:32:20;;;;;;;;;;;;;;;;;;1037560;28;3945;-46
2022/06/24 01:32:50;;;;;;;;;;;;;;;;;;1037225;28;1799;-47
2022/06/24 01:33:20;;;;;;;;;;;;;;;;;;1037682;28;3789;-48
2022/06/24 01:33:51;;;;;;;;;;;;;;;;;;1036165;28;2731;-50
2022/06/24 01:34:22;;;;;;;;;;;;;;;;;;1036145;28;3757;-48
2022/06/24 01:34:52;;;;;;;;;;;;;;;;;;1037676;28;1989;-47
2022/06/24 01:35:23;;;;;;;;;;;;;;;;;;1035904;28;4176;-45
2022/06/24 01:35:53;;;;;;;;;;;;;;;;;;1036348;28;1729;-47
2022/06/24 01:36:23;;;;;;;;;;;;;;;;;;1035911;28;3766;-50
2022/06/24 01:36:54;;;;;;;;;;;;;;;;;;1040540;28;2097;-45
2022/06/24 01:37:24;;;;;;;;;;;;;;;;;;1040341;28;5519;-46
2022/06/24 01:37:54;;;;;;;;;;;;;;;;;;1039412;28;2366;-51
2022/06/24 01:38:25;;;;;;;;;;;;;;;;;;1041497;28;3827;-47
2022/06/24 01:38:55;;;;;;;;;;;;;;;;;;1043757;28;3691;-46
2022/06/24 01:39:25;;;;;;;;;;;;;;;;;;1045176;28;3823;-46
2022/06/24 01:39:55;;;;;;;;;;;;;;;;;;1044835;28;1867;-47
2022/06/24 01:40:26;;;;;;;;;;;;;;;;;;1042721;28;4479;-48
2022/06/24 01:40:56;;;;;;;;;;;;;;;;;;1037241;28;1749;-46
2022/06/24 01:41:26;;;;;;;;;;;;;;;;;;1036265;28;3962;-50
2022/06/24 01:41:57;;;;;;;;;;;;;;;;;;1036645;28;2374;-47
2022/06/24 01:42:27;;;;;;;;;;;;;;;;;;1037055;28;3885;-46
2022/06/24 01:42:59;;;;;;;;;;;;;;;;;;1034991;28;5178;-47
2022/06/24 01:43:30;;;;;;;;;;;;;;;;;;1044656;28;2399;-47
2022/06/24 01:44:01;;;;;;;;;;;;;;;;;;1044259;28;3797;-47
2022/06/24 01:44:32;;;;;;;;;;;;;;;;;;1045313;28;1693;-47
2022/06/24 01:45:02;;;;;;;;;;;;;;;;;;1042383;28;3897;-46
2022/06/24 01:45:33;;;;;;;;;;;;;;;;;;1035795;28;3919;-48
2022/06/24 01:46:03;;;;;;;;;;;;;;;;;;1035546;28;3923;-47
2022/06/24 01:46:33;;;;;;;;;;;;;;;;;;1037692;28;1373;-48
2022/06/24 01:47:04;;;;;;;;;;;;;;;;;;1037051;28;3884;-46
2022/06/24 01:47:34;;;;;;;;;;;;;;;;;;1036016;28;2658;-47
2022/06/24 01:48:04;;;;;;;;;;;;;;;;;;1036930;28;3819;-47
2022/06/24 01:48:35;;;;;;;;;;;;;;;;;;1043978;28;3009;-46
2022/06/24 01:49:05;;;;;;;;;;;;;;;;;;1042272;28;3880;-46
2022/06/24 01:49:35;;;;;;;;;;;;;;;;;;1043765;28;3315;-46
2022/06/24 01:50:06;;;;;;;;;;;;;;;;;;1039329;28;3899;-46
2022/06/24 01:50:36;;;;;;;;;;;;;;;;;;1036107;28;3253;-46
2022/06/24 01:51:07;;;;;;;;;;;;;;;;;;1039055;28;3823;-48
2022/06/24 01:51:39;;;;;;;;;;;;;;;;;;1040035;28;3703;-50
2022/06/24 01:52:09;;;;;;;;;;;;;;;;;;1042084;28;3891;-46
2022/06/24 01:52:39;;;;;;;;;;;;;;;;;;1044218;28;1735;-46
2022/06/24 01:53:09;;;;;;;;;;;;;;;;;;1036121;28;4066;-49
2022/06/24 01:53:40;;;;;;;;;;;;;;;;;;1037499;28;1653;-50
2022/06/24 01:54:10;;;;;;;;;;;;;;;;;;1035219;28;3895;-48
2022/06/24 01:54:40;;;;;;;;;;;;;;;;;;1036166;28;2437;-47
2022/06/24 01:55:11;;;;;;;;;;;;;;;;;;1035508;28;4404;-46
2022/06/24 01:55:41;;;;;;;;;;;;;;;;;;1035429;28;3743;-48
2022/06/24 01:56:12;;;;;;;;;;;;;;;;;;1036691;28;4008;-47
2022/06/24 01:56:42;;;;;;;;;;;;;;;;;;1036860;28;2950;-46
2022/06/24 01:57:13;;;;;;;;;;;;;;;;;;1035305;28;3876;-48
2022/06/24 01:57:50;;;;;;;;;;;;;;;;;;1036319;28;3793;-46
2022/06/24 01:58:20;;;;;;;;;;;;;;;;;;1037156;28;3963;-48
2022/06/24 01:58:50;;;;;;;;;;;;;;;;;;1035086;28;2399;-46
2022/06/24 01:59:21;;;;;;;;;;;;;;;;;;1035939;28;3798;-47
2022/06/24 01:59:51;;;;;;;;;;;;;;;;;;1037658;28;1586;-50
2022/06/24 02:00:21;;;;;;;;;;;;;;;;;;1034510;28;4377;-47
2022/06/24 02:00:52;;;;;;;;;;;;;;;;;;1035300;28;3296;-46
2022/06/24 02:01:29;;;;;;;;;;;;;;;;;;1035121;28;3898;-46
2022/06/24 02:01:59;;;;;;;;;;;;;;;;;;1037541;28;3935;-49
2022/06/24 02:02:29;;;;;;;;;;;;;;;;;;1034811;28;3236;-45
2022/06/24 02:03:03;;;;;;;;;;;;;;;;;;1034629;28;3816;-51
2022/06/24 02:03:34;;;;;;;;;;;;;;;;;;1035786;28;2654;-50
2022/06/24 02:04:11;;;;;;;;;;;;;;;;;;1038621;28;3771;-48
2022/06/24 02:04:48;;;;;;;;;;;;;;;;;;1040127;28;3919;-48
2022/06/24 02:05:26;;;;;;;;;;;;;;;;;;1041119;28;3770;-47
2022/06/24 02:06:00;;;;;;;;;;;;;;;;;;1041926;28;1710;-49
2022/06/24 02:06:30;;;;;;;;;;;;;;;;;;1040788;28;3844;-49
2022/06/24 02:07:00;;;;;;;;;;;;;;;;;;1041254;28;3808;-47
2022/06/24 02:07:30;;;;;;;;;;;;;;;;;;1039861;28;3815;-49
2022/06/24 02:08:01;;;;;;;;;;;;;;;;;;1041088;28;3835;-46
2022/06/24 02:08:31;;;;;;;;;;;;;;;;;;1036359;28;2808;-46
2022/06/24 02:09:05;;;;;;;;;;;;;;;;;;1035043;28;4027;-47
2022/06/24 02:13:26;;;;;;;;;;;;;;;;;;1036058;28;2928;-45
2022/06/24 02:13:43;;;;;;;;;;;;;;;;;;1041078;28;4678;-49
2022/06/24 02:14:14;;;;;;;;;;;;;;;;;;1041239;28;4024;-46
2022/06/24 02:14:44;;;;;;;;;;;;;;;;;;1035239;28;2545;-51
2022/06/24 02:15:15;;;;;;;;;;;;;;;;;;1038299;28;3887;-47
2022/06/24 02:15:45;;;;;;;;;;;;;;;;;;1036367;28;2460;-47
2022/06/24 02:16:18;;;;;;;;;;;;;;;;;;1036891;28;3880;-47
2022/06/24 02:16:48;;;;;;;;;;;;;;;;;;1037146;28;1631;-47
2022/06/24 02:17:18;;;;;;;;;;;;;;;;;;1032744;28;3891;-48
2022/06/24 02:17:49;;;;;;;;;;;;;;;;;;1036130;28;2266;-47
2022/06/24 02:18:19;;;;;;;;;;;;;;;;;;1035070;28;3850;-48
2022/06/24 02:18:50;;;;;;;;;;;;;;;;;;1037303;28;1685;-48
2022/06/24 02:19:20;;;;;;;;;;;;;;;;;;1036322;28;3921;-47
2022/06/24 02:19:51;;;;;;;;;;;;;;;;;;1035210;28;3674;-47
2022/06/24 02:20:21;;;;;;;;;;;;;;;;;;1039131;28;4281;-49
2022/06/24 02:20:51;;;;;;;;;;;;;;;;;;1042530;28;3980;-47
2022/06/24 02:21:22;;;;;;;;;;;;;;;;;;1045645;28;3846;-49
2022/06/24 02:21:52;;;;;;;;;;;;;;;;;;1045919;28;1697;-47
2022/06/24 02:22:23;;;;;;;;;;;;;;;;;;1041611;28;3772;-47
2022/06/24 02:22:53;;;;;;;;;;;;;;;;;;1041789;28;1588;-47
2022/06/24 02:23:23;;;;;;;;;;;;;;;;;;1044816;28;4289;-47
2022/06/24 02:23:54;;;;;;;;;;;;;;;;;;1044674;28;3132;-47
2022/06/24 02:24:24;;;;;;;;;;;;;;;;;;1043074;28;3944;-47
2022/06/24 02:24:54;;;;;;;;;;;;;;;;;;1043934;28;3187;-47
2022/06/24 02:25:24;;;;;;;;;;;;;;;;;;1042297;28;3821;-46
2022/06/24 02:25:55;;;;;;;;;;;;;;;;;;1040097;28;3814;-48
2022/06/24 02:26:25;;;;;;;;;;;;;;;;;;1041870;28;4292;-47
2022/06/24 02:26:56;;;;;;;;;;;;;;;;;;1042043;28;2570;-47
2022/06/24 02:27:26;;;;;;;;;;;;;;;;;;1036414;28;4035;-48
2022/06/24 02:27:56;;;;;;;;;;;;;;;;;;1037511;28;2138;-46
2022/06/24 02:28:27;;;;;;;;;;;;;;;;;;1035762;28;3723;-47
2022/06/24 02:28:57;;;;;;;;;;;;;;;;;;1037335;28;3886;-48
2022/06/24 02:29:27;;;;;;;;;;;;;;;;;;1042505;28;1678;-49
2022/06/24 02:29:57;;;;;;;;;;;;;;;;;;1040598;28;3861;-49
2022/06/24 02:30:28;;;;;;;;;;;;;;;;;;1041273;28;3455;-48
2022/06/24 02:30:59;;;;;;;;;;;;;;;;;;1040395;28;4272;-45
2022/06/24 02:31:30;;;;;;;;;;;;;;;;;;1037796;28;1706;-47
2022/06/24 02:32:00;;;;;;;;;;;;;;;;;;1036198;28;3938;-47
2022/06/24 02:32:30;;;;;;;;;;;;;;;;;;1037617;28;2048;-48
2022/06/24 02:33:00;;;;;;;;;;;;;;;;;;1034880;28;4163;-46
2022/06/24 02:33:31;;;;;;;;;;;;;;;;;;1041238;28;4038;-45
2022/06/24 02:34:01;;;;;;;;;;;;;;;;;;1041008;28;3811;-48
2022/06/24 02:34:31;;;;;;;;;;;;;;;;;;1036455;28;3279;-50
2022/06/24 02:35:01;;;;;;;;;;;;;;;;;;1034988;28;3868;-47
2022/06/24 02:35:40;;;;;;;;;;;;;;;;;;1037777;28;1722;-49
2022/06/24 02:36:10;;;;;;;;;;;;;;;;;;1037403;28;3828;-48
2022/06/24 02:36:40;;;;;;;;;;;;;;;;;;1042404;28;1776;-47
2022/06/24 02:37:11;;;;;;;;;;;;;;;;;;1041490;28;3932;-51
2022/06/24 02:37:41;;;;;;;;;;;;;;;;;;1040392;28;3674;-47
2022/06/24 02:38:11;;;;;;;;;;;;;;;;;;1043975;28;3820;-49
2022/06/24 02:38:42;;;;;;;;;;;;;;;;;;1040780;28;2813;-47
2022/06/24 02:39:12;;;;;;;;;;;;;;;;;;1041524;28;3879;-47
2022/06/24 02:39:42;;;;;;;;;;;;;;;;;;1040058;28;3227;-49
2022/06/24 02:41:01;;;;;;;;;;;;;;;;;;1040961;28;3807;-50
2022/06/24 02:41:32;;;;;;;;;;;;;;;;;;1040484;28;3272;-47
2022/06/24 02:42:02;;;;;;;;;;;;;;;;;;1040903;28;3887;-50
2022/06/24 02:42:33;;;;;;;;;;;;;;;;;;1040285;28;3316;-45
2022/06/24 02:43:10;;;;;;;;;;;;;;;;;;1036049;28;4314;-50
2022/06/24 02:43:40;;;;;;;;;;;;;;;;;;1037745;28;1972;-48
2022/06/24 02:44:10;;;;;;;;;;;;;;;;;;1036614;28;3903;-45
2022/06/24 02:44:41;;;;;;;;;;;;;;;;;;1033616;28;3266;-49
2022/06/24 02:45:11;;;;;;;;;;;;;;;;;;1034930;28;3885;-48
2022/06/24 02:45:42;;;;;;;;;;;;;;;;;;1037565;28;1847;-50
2022/06/24 02:46:13;;;;;;;;;;;;;;;;;;1036929;28;3877;-50
2022/06/24 02:46:49;;;;;;;;;;;;;;;;;;1041545;28;2949;-47
2022/06/24 02:47:20;;;;;;;;;;;;;;;;;;1040061;28;4275;-47
2022/06/24 02:47:50;;;;;;;;;;;;;;;;;;1041177;28;3668;-47
2022/06/24 02:48:21;;;;;;;;;;;;;;;;;;1040982;28;3785;-49
2022/06/24 02:48:53;;;;;;;;;;;;;;;;;;1041311;28;2785;-46
2022/06/24 02:49:23;;;;;;;;;;;;;;;;;;1041360;28;3804;-46
2022/06/24 02:49:53;;;;;;;;;;;;;;;;;;1035505;28;3508;-48
2022/06/24 02:50:24;;;;;;;;;;;;;;;;;;1033909;28;3771;-47
2022/06/24 02:50:55;;;;;;;;;;;;;;;;;;1034038;28;2877;-49
2022/06/24 02:51:26;;;;;;;;;;;;;;;;;;1034563;28;3834;-48
2022/06/24 02:51:56;;;;;;;;;;;;;;;;;;1040697;28;3574;-47
2022/06/24 02:52:27;;;;;;;;;;;;;;;;;;1040654;28;3785;-46
2022/06/24 02:52:57;;;;;;;;;;;;;;;;;;1037453;28;1669;-48
2022/06/24 02:53:28;;;;;;;;;;;;;;;;;;1037291;28;3980;-46
2022/06/24 02:53:58;;;;;;;;;;;;;;;;;;1040025;28;3830;-46
2022/06/24 02:54:28;;;;;;;;;;;;;;;;;;1040528;28;3695;-48
2022/06/24 02:54:59;;;;;;;;;;;;;;;;;;1039748;28;4269;-46
2022/06/24 02:55:29;;;;;;;;;;;;;;;;;;1040182;28;3838;-47
2022/06/24 02:56:00;;;;;;;;;;;;;;;;;;1036454;28;3817;-47
2022/06/24 02:56:31;;;;;;;;;;;;;;;;;;1033143;28;3741;-50
2022/06/24 02:57:01;;;;;;;;;;;;;;;;;;1035406;28;3801;-46
2022/06/24 02:57:31;;;;;;;;;;;;;;;;;;1035595;28;3288;-47
2022/06/24 02:58:02;;;;;;;;;;;;;;;;;;1032714;28;4329;-46
2022/06/24 02:58:32;;;;;;;;;;;;;;;;;;1038410;28;1677;-45
2022/06/24 02:59:03;;;;;;;;;;;;;;;;;;1035893;28;3876;-49
2022/06/24 02:59:33;;;;;;;;;;;;;;;;;;1037201;28;3164;-46
2022/06/24 03:00:04;;;;;;;;;;;;;;;;;;1041021;28;3863;-49
2022/06/24 03:00:34;;;;;;;;;;;;;;;;;;1042192;28;2754;-46
2022/06/24 03:01:04;;;;;;;;;;;;;;;;;;1039145;28;3820;-46
2022/06/24 03:01:34;;;;;;;;;;;;;;;;;;1041323;28;3314;-47
2022/06/24 03:02:05;;;;;;;;;;;;;;;;;;1041391;28;3815;-46
2022/06/24 03:02:35;;;;;;;;;;;;;;;;;;1038000;28;2798;-49
2022/06/24 03:03:06;;;;;;;;;;;;;;;;;;1036649;28;4264;-47
2022/06/24 03:03:36;;;;;;;;;;;;;;;;;;1037866;28;2538;-49
2022/06/24 03:04:13;;;;;;;;;;;;;;;;;;1035798;28;3825;-45
2022/06/24 03:04:44;;;;;;;;;;;;;;;;;;1036698;28;2796;-45
2022/06/24 03:05:14;;;;;;;;;;;;;;;;;;1042219;28;4227;-47
2022/06/24 03:05:45;;;;;;;;;;;;;;;;;;1045725;28;1749;-47
2022/06/24 03:06:15;;;;;;;;;;;;;;;;;;1045338;28;3872;-49
2022/06/24 03:06:45;;;;;;;;;;;;;;;;;;1043669;28;3130;-46
2022/06/24 03:07:15;;;;;;;;;;;;;;;;;;1037008;28;3893;-46
2022/06/24 03:07:46;;;;;;;;;;;;;;;;;;1037004;28;2783;-45
2022/06/24 03:08:17;;;;;;;;;;;;;;;;;;1037936;28;3857;-48
2022/06/24 03:08:47;;;;;;;;;;;;;;;;;;1038154;28;1648;-47
2022/06/24 03:09:17;;;;;;;;;;;;;;;;;;1037841;28;3810;-49
2022/06/24 03:09:48;;;;;;;;;;;;;;;;;;1037176;28;1965;-47
2022/06/24 03:10:18;;;;;;;;;;;;;;;;;;1037837;28;3799;-45
2022/06/24 03:10:49;;;;;;;;;;;;;;;;;;1037434;28;2690;-49
2022/06/24 03:11:19;;;;;;;;;;;;;;;;;;1035633;28;3797;-46
2022/06/24 03:11:49;;;;;;;;;;;;;;;;;;1037325;28;1807;-44
2022/06/24 03:12:20;;;;;;;;;;;;;;;;;;1036319;28;4243;-51
2022/06/24 03:12:50;;;;;;;;;;;;;;;;;;1037423;28;1803;-47
2022/06/24 03:13:20;;;;;;;;;;;;;;;;;;1037340;28;4285;-45
2022/06/24 03:13:51;;;;;;;;;;;;;;;;;;1036770;28;2439;-51
2022/06/24 03:14:21;;;;;;;;;;;;;;;;;;1036441;28;4550;-48
2022/06/24 03:14:51;;;;;;;;;;;;;;;;;;1036236;28;3332;-47
2022/06/24 03:15:21;;;;;;;;;;;;;;;;;;1037847;28;3788;-47
2022/06/24 03:15:52;;;;;;;;;;;;;;;;;;1037392;28;1930;-49
2022/06/24 03:16:22;;;;;;;;;;;;;;;;;;1038346;28;3820;-47
2022/06/24 03:16:52;;;;;;;;;;;;;;;;;;1037101;28;2849;-47
2022/06/24 03:17:23;;;;;;;;;;;;;;;;;;1037423;28;3808;-46
2022/06/24 03:17:53;;;;;;;;;;;;;;;;;;1035896;28;2869;-47
2022/06/24 03:18:26;;;;;;;;;;;;;;;;;;1037929;28;3820;-48
2022/06/24 03:18:56;;;;;;;;;;;;;;;;;;1035147;28;3891;-46
2022/06/24 03:19:26;;;;;;;;;;;;;;;;;;1036718;28;4139;-49
2022/06/24 03:19:56;;;;;;;;;;;;;;;;;;1037467;28;1902;-46
2022/06/24 03:20:28;;;;;;;;;;;;;;;;;;1038077;28;4109;-46
2022/06/24 03:20:59;;;;;;;;;;;;;;;;;;1035435;28;4299;-46
2022/06/24 03:21:29;;;;;;;;;;;;;;;;;;1038248;28;4153;-47
2022/06/24 03:21:59;;;;;;;;;;;;;;;;;;1037140;28;4234;-48
2022/06/24 03:22:30;;;;;;;;;;;;;;;;;;1037184;28;2830;-47
2022/06/24 03:23:00;;;;;;;;;;;;;;;;;;1036909;28;4047;-47
2022/06/24 03:23:30;;;;;;;;;;;;;;;;;;1037875;28;3253;-46
2022/06/24 03:24:00;;;;;;;;;;;;;;;;;;1036500;28;3856;-48
2022/06/24 03:24:31;;;;;;;;;;;;;;;;;;1036601;28;3870;-47
2022/06/24 03:25:01;;;;;;;;;;;;;;;;;;1036162;28;3912;-47
2022/06/24 03:25:32;;;;;;;;;;;;;;;;;;1032947;28;4155;-46
2022/06/24 03:26:02;;;;;;;;;;;;;;;;;;1036677;28;4324;-48
2022/06/24 03:26:32;;;;;;;;;;;;;;;;;;1038582;28;1621;-48
2022/06/24 03:27:03;;;;;;;;;;;;;;;;;;1036358;28;3909;-47
2022/06/24 03:27:34;;;;;;;;;;;;;;;;;;1037903;28;1723;-48
2022/06/24 03:28:04;;;;;;;;;;;;;;;;;;1036787;28;3888;-49
2022/06/24 03:28:35;;;;;;;;;;;;;;;;;;1039398;28;1606;-46
2022/06/24 03:29:05;;;;;;;;;;;;;;;;;;1037212;28;3800;-47
2022/06/24 03:29:35;;;;;;;;;;;;;;;;;;1037855;28;2365;-48
2022/06/24 03:30:06;;;;;;;;;;;;;;;;;;1036372;28;3907;-47
2022/06/24 03:30:37;;;;;;;;;;;;;;;;;;1038363;28;2712;-45
2022/06/24 03:31:11;;;;;;;;;;;;;;;;;;1035856;28;4005;-47
2022/06/24 03:31:41;;;;;;;;;;;;;;;;;;1035330;28;4239;-47
2022/06/24 03:32:12;;;;;;;;;;;;;;;;;;1032621;28;3917;-46
2022/06/24 03:32:42;;;;;;;;;;;;;;;;;;1037504;28;4043;-45
2022/06/24 03:33:12;;;;;;;;;;;;;;;;;;1034395;28;4167;-47
2022/06/24 03:33:43;;;;;;;;;;;;;;;;;;1037871;28;3305;-47
2022/06/24 03:34:13;;;;;;;;;;;;;;;;;;1036303;28;3879;-47
2022/06/24 03:34:43;;;;;;;;;;;;;;;;;;1038276;28;1680;-47
2022/06/24 03:35:14;;;;;;;;;;;;;;;;;;1036402;28;3954;-52
2022/06/24 03:35:44;;;;;;;;;;;;;;;;;;1036298;28;2926;-45
2022/06/24 03:36:14;;;;;;;;;;;;;;;;;;1036677;28;4054;-45
2022/06/24 03:36:44;;;;;;;;;;;;;;;;;;1037371;28;2709;-49
2022/06/24 03:37:15;;;;;;;;;;;;;;;;;;1036812;28;3811;-47
2022/06/24 03:37:45;;;;;;;;;;;;;;;;;;1033256;28;3208;-48
2022/06/24 03:38:15;;;;;;;;;;;;;;;;;;1032972;28;3889;-46
2022/06/24 03:38:46;;;;;;;;;;;;;;;;;;1033036;28;2971;-46
2022/06/24 03:39:16;;;;;;;;;;;;;;;;;;1036910;28;4250;-47
2022/06/24 03:39:46;;;;;;;;;;;;;;;;;;1038473;28;1774;-46
2022/06/24 03:40:16;;;;;;;;;;;;;;;;;;1037276;28;4207;-46
2022/06/24 03:40:47;;;;;;;;;;;;;;;;;;1037132;28;2972;-47
2022/06/24 03:41:17;;;;;;;;;;;;;;;;;;1036373;28;3787;-47
2022/06/24 03:41:47;;;;;;;;;;;;;;;;;;1037758;28;1670;-47
2022/06/24 03:42:17;;;;;;;;;;;;;;;;;;1033919;28;4265;-48
2022/06/24 03:42:48;;;;;;;;;;;;;;;;;;1037921;28;3722;-46
2022/06/24 03:43:18;;;;;;;;;;;;;;;;;;1036036;28;3888;-46
2022/06/24 03:43:48;;;;;;;;;;;;;;;;;;1038404;28;1934;-52
2022/06/24 03:44:19;;;;;;;;;;;;;;;;;;1035486;28;3947;-49